sensor_id;sensor_type;location;lat;lon;timestamp;pressure;altitude;pressure_sealevel;temperature;humidity
11888;BME280;6003;42.756;23.130;2023-04-21T00:00:50;154609.63;;;8.54;88.47
11888;BME280;6003;42.756;23.130;2023-04-21T00:03:18;154591.19;;;8.47;87.54
11888;BME280;6003;42.756;23.130;2023-04-21T00:05:46;154592.50;;;8.48;87.98
11888;BME280;6003;42.756;23.130;2023-04-21T00:08:13;154605.69;;;8.53;88.06
11888;BME280;6003;42.756;23.130;2023-04-21T00:10:40;154592.50;;;8.48;87.47
11888;BME280;6003;42.756;23.130;2023-04-21T00:13:07;154591.19;;;8.47;88.15
11888;BME280;6003;42.756;23.130;2023-04-21T00:15:34;154567.38;;;8.38;88.13
11888;BME280;6003;42.756;23.130;2023-04-21T00:18:03;154567.38;;;8.38;87.57
11888;BME280;6003;42.756;23.130;2023-04-21T00:20:31;154548.91;;;8.31;88.66
11888;BME280;6003;42.756;23.130;2023-04-21T00:22:58;154538.34;;;8.27;88.65
11888;BME280;6003;42.756;23.130;2023-04-21T00:25:25;154535.75;;;8.26;88.34
11888;BME280;6003;42.756;23.130;2023-04-21T00:27:51;154523.84;;;8.21;87.86
11888;BME280;6003;42.756;23.130;2023-04-21T00:30:18;154527.78;;;8.23;89.21
11888;BME280;6003;42.756;23.130;2023-04-21T00:32:45;154506.72;;;8.14;89.21
11888;BME280;6003;42.756;23.130;2023-04-21T00:35:14;154496.13;;;8.10;88.65
11888;BME280;6003;42.756;23.130;2023-04-21T00:37:40;154496.13;;;8.10;89.83
11888;BME280;6003;42.756;23.130;2023-04-21T00:40:08;154468.41;;;8.00;89.68
11888;BME280;6003;42.756;23.130;2023-04-21T00:42:35;154471.09;;;8.01;89.17
11888;BME280;6003;42.756;23.130;2023-04-21T00:45:02;154469.78;;;8.00;90.44
11888;BME280;6003;42.756;23.130;2023-04-21T00:47:29;154471.09;;;8.01;89.76
11888;BME280;6003;42.756;23.130;2023-04-21T00:50:03;154467.09;;;7.99;90.43
11888;BME280;6003;42.756;23.130;2023-04-21T00:52:32;154456.56;;;7.95;91.24
11888;BME280;6003;42.756;23.130;2023-04-21T00:54:59;154460.50;;;7.97;90.57
11888;BME280;6003;42.756;23.130;2023-04-21T00:57:26;154453.94;;;7.94;91.57
11888;BME280;6003;42.756;23.130;2023-04-21T00:59:54;154467.09;;;7.99;90.37
11888;BME280;6003;42.756;23.130;2023-04-21T01:02:21;154448.66;;;7.92;91.09
11888;BME280;6003;42.756;23.130;2023-04-21T01:04:48;154443.38;;;7.90;90.39
11888;BME280;6003;42.756;23.130;2023-04-21T01:07:15;154440.75;;;7.89;90.96
11888;BME280;6003;42.756;23.130;2023-04-21T01:09:43;154438.06;;;7.88;91.12
11888;BME280;6003;42.756;23.130;2023-04-21T01:12:10;154432.84;;;7.86;91.82
11888;BME280;6003;42.756;23.130;2023-04-21T01:14:38;154426.25;;;7.83;92.02
11888;BME280;6003;42.756;23.130;2023-04-21T01:17:06;154417.03;;;7.80;92.10
11888;BME280;6003;42.756;23.130;2023-04-21T01:19:36;154419.63;;;7.81;92.32
11888;BME280;6003;42.756;23.130;2023-04-21T01:22:07;154403.81;;;7.75;91.63
11888;BME280;6003;42.756;23.130;2023-04-21T01:24:37;154403.81;;;7.75;91.41
11888;BME280;6003;42.756;23.130;2023-04-21T01:27:08;154382.72;;;7.66;92.42
11888;BME280;6003;42.756;23.130;2023-04-21T01:29:36;154394.59;;;7.71;92.17
11888;BME280;6003;42.756;23.130;2023-04-21T01:32:06;154395.91;;;7.72;93.02
11888;BME280;6003;42.756;23.130;2023-04-21T01:34:33;154398.53;;;7.73;92.73
11888;BME280;6003;42.756;23.130;2023-04-21T01:37:01;154423.56;;;7.82;92.46
11888;BME280;6003;42.756;23.130;2023-04-21T01:39:29;154424.94;;;7.83;92.23
11888;BME280;6003;42.756;23.130;2023-04-21T01:41:56;154409.06;;;7.77;92.74
11888;BME280;6003;42.756;23.130;2023-04-21T01:44:24;154411.72;;;7.78;93.36
11888;BME280;6003;42.756;23.130;2023-04-21T01:46:51;154417.03;;;7.80;93.26
11888;BME280;6003;42.756;23.130;2023-04-21T01:49:18;154397.22;;;7.72;93.64
11888;BME280;6003;42.756;23.130;2023-04-21T01:51:45;154377.41;;;7.64;93.99
11888;BME280;6003;42.756;23.130;2023-04-21T01:54:11;154401.16;;;7.74;93.43
11888;BME280;6003;42.756;23.130;2023-04-21T01:56:39;154411.72;;;7.78;93.71
11888;BME280;6003;42.756;23.130;2023-04-21T01:59:06;154403.81;;;7.75;93.12
11888;BME280;6003;42.756;23.130;2023-04-21T02:01:33;154373.50;;;7.63;94.32
11888;BME280;6003;42.756;23.130;2023-04-21T02:04:01;154356.31;;;7.56;93.94
11888;BME280;6003;42.756;23.130;2023-04-21T02:06:28;154329.97;;;7.46;94.33
11888;BME280;6003;42.756;23.130;2023-04-21T02:08:55;154312.84;;;7.39;94.10
11888;BME280;6003;42.756;23.130;2023-04-21T02:11:22;154299.66;;;7.34;93.96
11888;BME280;6003;42.756;23.130;2023-04-21T02:13:52;154279.88;;;7.27;94.33
11888;BME280;6003;42.756;23.130;2023-04-21T02:16:19;154256.16;;;7.17;93.98
11888;BME280;6003;42.756;23.130;2023-04-21T02:18:50;154224.53;;;7.05;93.67
11888;BME280;6003;42.756;23.130;2023-04-21T02:21:18;154179.72;;;6.88;94.73
11888;BME280;6003;42.756;23.130;2023-04-21T02:23:45;154162.56;;;6.81;94.63
11888;BME280;6003;42.756;23.130;2023-04-21T02:26:12;154148.06;;;6.75;94.68
11888;BME280;6003;42.756;23.130;2023-04-21T02:28:38;154132.25;;;6.69;94.39
11888;BME280;6003;42.756;23.130;2023-04-21T02:31:07;154119.06;;;6.64;95.46
11888;BME280;6003;42.756;23.130;2023-04-21T02:33:34;154095.34;;;6.55;95.13
11888;BME280;6003;42.756;23.130;2023-04-21T02:36:01;154087.44;;;6.52;95.61
11888;BME280;6003;42.756;23.130;2023-04-21T02:38:27;154072.94;;;6.46;96.08
11888;BME280;6003;42.756;23.130;2023-04-21T02:40:55;154061.13;;;6.42;96.30
11888;BME280;6003;42.756;23.130;2023-04-21T02:43:22;154034.75;;;6.31;96.97
11888;BME280;6003;42.756;23.130;2023-04-21T02:45:49;154000.50;;;6.18;98.21
11888;BME280;6003;42.756;23.130;2023-04-21T02:48:17;154013.69;;;6.23;98.79
11888;BME280;6003;42.756;23.130;2023-04-21T02:50:47;154030.78;;;6.30;99.11
11888;BME280;6003;42.756;23.130;2023-04-21T02:53:14;154037.38;;;6.32;99.08
11888;BME280;6003;42.756;23.130;2023-04-21T02:55:41;154037.38;;;6.32;98.47
11888;BME280;6003;42.756;23.130;2023-04-21T02:58:08;154042.66;;;6.35;98.59
11888;BME280;6003;42.756;23.130;2023-04-21T03:00:35;154028.16;;;6.29;99.27
11888;BME280;6003;42.756;23.130;2023-04-21T03:03:02;154037.38;;;6.32;99.44
11888;BME280;6003;42.756;23.130;2023-04-21T03:05:30;154033.44;;;6.31;98.58
11888;BME280;6003;42.756;23.130;2023-04-21T03:07:57;154033.44;;;6.31;99.37
11888;BME280;6003;42.756;23.130;2023-04-21T03:10:24;154032.16;;;6.30;99.43
11888;BME280;6003;42.756;23.130;2023-04-21T03:12:51;154028.16;;;6.29;98.83
11888;BME280;6003;42.756;23.130;2023-04-21T03:15:18;154000.50;;;6.18;99.38
11888;BME280;6003;42.756;23.130;2023-04-21T03:17:45;153982.06;;;6.11;100.00
11888;BME280;6003;42.756;23.130;2023-04-21T03:20:12;153982.06;;;6.11;100.00
11888;BME280;6003;42.756;23.130;2023-04-21T03:22:40;153964.97;;;6.04;100.00
11888;BME280;6003;42.756;23.130;2023-04-21T03:25:07;153949.13;;;5.98;100.00
11888;BME280;6003;42.756;23.130;2023-04-21T03:27:34;153934.59;;;5.93;100.00
11888;BME280;6003;42.756;23.130;2023-04-21T03:30:00;153929.34;;;5.91;100.00
11888;BME280;6003;42.756;23.130;2023-04-21T03:32:27;153895.09;;;5.77;100.00
11888;BME280;6003;42.756;23.130;2023-04-21T03:34:54;153876.69;;;5.70;100.00
11888;BME280;6003;42.756;23.130;2023-04-21T03:37:21;153891.19;;;5.76;100.00
11888;BME280;6003;42.756;23.130;2023-04-21T03:39:49;153874.03;;;5.69;100.00
11888;BME280;6003;42.756;23.130;2023-04-21T03:42:16;153899.06;;;5.79;100.00
11888;BME280;6003;42.756;23.130;2023-04-21T03:44:42;153936.00;;;5.93;100.00
11888;BME280;6003;42.756;23.130;2023-04-21T03:47:09;153955.72;;;6.01;100.00
11888;BME280;6003;42.756;23.130;2023-04-21T03:49:36;153974.19;;;6.08;100.00
11888;BME280;6003;42.756;23.130;2023-04-21T03:52:03;154003.16;;;6.19;100.00
11888;BME280;6003;42.756;23.130;2023-04-21T03:54:30;154038.72;;;6.33;100.00
11888;BME280;6003;42.756;23.130;2023-04-21T03:56:58;154090.06;;;6.53;100.00
11888;BME280;6003;42.756;23.130;2023-04-21T03:59:25;154123.03;;;6.66;100.00
11888;BME280;6003;42.756;23.130;2023-04-21T04:01:52;154169.13;;;6.84;100.00
11888;BME280;6003;42.756;23.130;2023-04-21T04:04:18;154183.63;;;6.89;100.00
11888;BME280;6003;42.756;23.130;2023-04-21T04:06:45;154212.63;;;7.00;100.00
11888;BME280;6003;42.756;23.130;2023-04-21T04:09:12;154261.44;;;7.19;100.00
11888;BME280;6003;42.756;23.130;2023-04-21T04:11:39;154267.97;;;7.22;100.00
11888;BME280;6003;42.756;23.130;2023-04-21T04:14:07;154282.47;;;7.28;100.00
11888;BME280;6003;42.756;23.130;2023-04-21T04:16:34;154285.16;;;7.29;99.74
11888;BME280;6003;42.756;23.130;2023-04-21T04:19:02;154315.47;;;7.40;99.80
11888;BME280;6003;42.756;23.130;2023-04-21T04:21:28;154320.75;;;7.42;99.37
11888;BME280;6003;42.756;23.130;2023-04-21T04:23:56;154326.00;;;7.44;99.24
11888;BME280;6003;42.756;23.130;2023-04-21T04:26:23;154348.41;;;7.53;99.37
11888;BME280;6003;42.756;23.130;2023-04-21T04:28:50;154366.91;;;7.60;99.36
11888;BME280;6003;42.756;23.130;2023-04-21T04:31:18;154390.63;;;7.69;99.39
11888;BME280;6003;42.756;23.130;2023-04-21T04:33:45;154414.34;;;7.79;98.73
11888;BME280;6003;42.756;23.130;2023-04-21T04:36:12;154446.00;;;7.91;99.07
11888;BME280;6003;42.756;23.130;2023-04-21T04:38:39;154468.41;;;8.00;98.37
11888;BME280;6003;42.756;23.130;2023-04-21T04:41:06;154480.31;;;8.04;97.79
11888;BME280;6003;42.756;23.130;2023-04-21T04:43:33;154505.34;;;8.14;97.87
11888;BME280;6003;42.756;23.130;2023-04-21T04:46:03;154527.78;;;8.23;98.48
11888;BME280;6003;42.756;23.130;2023-04-21T04:48:31;154558.16;;;8.34;97.84
11888;BME280;6003;42.756;23.130;2023-04-21T04:50:58;154596.47;;;8.49;97.38
11888;BME280;6003;42.756;23.130;2023-04-21T04:53:27;154633.44;;;8.64;97.27
11888;BME280;6003;42.756;23.130;2023-04-21T04:55:53;154679.63;;;8.81;96.05
11888;BME280;6003;42.756;23.130;2023-04-21T04:58:21;154698.06;;;8.89;96.27
11888;BME280;6003;42.756;23.130;2023-04-21T05:00:49;154723.19;;;8.98;95.39
11888;BME280;6003;42.756;23.130;2023-04-21T05:03:15;154778.59;;;9.20;95.12
11888;BME280;6003;42.756;23.130;2023-04-21T05:05:44;154820.88;;;9.36;94.93
11888;BME280;6003;42.756;23.130;2023-04-21T05:08:10;154864.47;;;9.53;94.70
11888;BME280;6003;42.756;23.130;2023-04-21T05:13:46;155019.03;;;10.13;93.17
11888;BME280;6003;42.756;23.130;2023-04-21T05:16:13;155103.66;;;10.46;91.82
11888;BME280;6003;42.756;23.130;2023-04-21T05:18:39;155159.13;;;10.67;90.55
11888;BME280;6003;42.756;23.130;2023-04-21T05:21:08;155201.44;;;10.83;90.01
11888;BME280;6003;42.756;23.130;2023-04-21T05:23:34;155238.47;;;10.98;89.77
11888;BME280;6003;42.756;23.130;2023-04-21T05:26:01;155264.94;;;11.08;89.30
11888;BME280;6003;42.756;23.130;2023-04-21T05:28:28;155286.06;;;11.16;88.22
11888;BME280;6003;42.756;23.130;2023-04-21T05:30:56;155315.16;;;11.27;87.49
11888;BME280;6003;42.756;23.130;2023-04-21T05:33:22;155381.28;;;11.53;87.11
11888;BME280;6003;42.756;23.130;2023-04-21T05:35:51;155573.22;;;12.27;87.03
11888;BME280;6003;42.756;23.130;2023-04-21T05:38:19;155901.66;;;13.54;82.06
11888;BME280;6003;42.756;23.130;2023-04-21T05:40:52;156191.97;;;14.66;77.96
11888;BME280;6003;42.756;23.130;2023-04-21T05:43:19;156470.56;;;15.73;69.54
11888;BME280;6003;42.756;23.130;2023-04-21T05:45:46;156635.16;;;16.37;68.74
11888;BME280;6003;42.756;23.130;2023-04-21T05:48:13;156563.50;;;16.09;66.49
11888;BME280;6003;42.756;23.130;2023-04-21T05:50:40;156523.66;;;15.94;68.70
11888;BME280;6003;42.756;23.130;2023-04-21T05:53:07;156509.09;;;15.88;69.61
11888;BME280;6003;42.756;23.130;2023-04-21T05:55:35;156458.66;;;15.69;66.80
11888;BME280;6003;42.756;23.130;2023-04-21T05:58:02;156586.06;;;16.18;69.16
11888;BME280;6003;42.756;23.130;2023-04-21T06:00:29;156720.16;;;16.69;66.17
11888;BME280;6003;42.756;23.130;2023-04-21T06:02:56;156922.13;;;17.47;66.00
11888;BME280;6003;42.756;23.130;2023-04-21T06:05:23;156895.53;;;17.37;63.08
11888;BME280;6003;42.756;23.130;2023-04-21T06:07:50;156809.19;;;17.04;65.09
11888;BME280;6003;42.756;23.130;2023-04-21T06:10:17;156830.47;;;17.12;64.95
11888;BME280;6003;42.756;23.130;2023-04-21T06:12:45;156898.22;;;17.38;64.56
11888;BME280;6003;42.756;23.130;2023-04-21T06:15:12;156980.59;;;17.70;63.87
11888;BME280;6003;42.756;23.130;2023-04-21T06:17:39;157053.69;;;17.98;63.05
11888;BME280;6003;42.756;23.130;2023-04-21T06:20:07;157109.56;;;18.19;62.69
11888;BME280;6003;42.756;23.130;2023-04-21T06:22:35;156922.13;;;17.47;63.34
11888;BME280;6003;42.756;23.130;2023-04-21T06:25:02;156725.50;;;16.72;65.98
11888;BME280;6003;42.756;23.130;2023-04-21T06:27:29;156422.78;;;15.55;67.52
11888;BME280;6003;42.756;23.130;2023-04-21T06:29:58;156215.84;;;14.75;70.76
11888;BME280;6003;42.756;23.130;2023-04-21T06:32:25;156207.88;;;14.72;71.39
11888;BME280;6003;42.756;23.130;2023-04-21T06:34:52;156251.66;;;14.89;72.28
11888;BME280;6003;42.756;23.130;2023-04-21T06:37:19;156185.34;;;14.63;71.61
11888;BME280;6003;42.756;23.130;2023-04-21T06:39:46;156067.28;;;14.18;72.54
11888;BME280;6003;42.756;23.130;2023-04-21T06:42:12;156134.91;;;14.44;74.42
11888;BME280;6003;42.756;23.130;2023-04-21T06:44:39;156225.16;;;14.79;74.57
11888;BME280;6003;42.756;23.130;2023-04-21T06:47:07;156340.50;;;15.23;73.76
11888;BME280;6003;42.756;23.130;2023-04-21T06:49:34;156528.97;;;15.96;72.57
11888;BME280;6003;42.756;23.130;2023-04-21T06:52:01;156592.72;;;16.20;67.53
11888;BME280;6003;42.756;23.130;2023-04-21T06:54:28;156661.72;;;16.47;68.66
11888;BME280;6003;42.756;23.130;2023-04-21T06:56:55;156612.59;;;16.28;68.17
11888;BME280;6003;42.756;23.130;2023-04-21T06:59:22;156446.63;;;15.64;68.37
11888;BME280;6003;42.756;23.130;2023-04-21T07:01:49;156323.28;;;15.17;70.48
11888;BME280;6003;42.756;23.130;2023-04-21T07:04:18;156213.19;;;14.74;71.02
11888;BME280;6003;42.756;23.130;2023-04-21T07:06:45;156203.94;;;14.71;71.80
11888;BME280;6003;42.756;23.130;2023-04-21T07:09:12;156166.81;;;14.56;74.03
11888;BME280;6003;42.756;23.130;2023-04-21T07:11:39;156048.75;;;14.11;72.92
11888;BME280;6003;42.756;23.130;2023-04-21T07:14:06;156111.03;;;14.35;74.66
11888;BME280;6003;42.756;23.130;2023-04-21T07:16:33;156178.69;;;14.61;73.49
11888;BME280;6003;42.756;23.130;2023-04-21T07:18:59;156226.47;;;14.79;74.17
11888;BME280;6003;42.756;23.130;2023-04-21T07:21:28;156312.66;;;15.12;76.00
11888;BME280;6003;42.756;23.130;2023-04-21T07:24:00;156286.16;;;15.02;70.85
11888;BME280;6003;42.756;23.130;2023-04-21T07:26:27;156282.16;;;15.01;73.04
11888;BME280;6003;42.756;23.130;2023-04-21T07:28:55;156312.66;;;15.12;72.65
11888;BME280;6003;42.756;23.130;2023-04-21T07:31:22;156298.06;;;15.07;71.28
11888;BME280;6003;42.756;23.130;2023-04-21T07:33:49;156176.06;;;14.60;71.94
11888;BME280;6003;42.756;23.130;2023-04-21T07:36:16;156193.28;;;14.66;72.37
11888;BME280;6003;42.756;23.130;2023-04-21T07:38:44;156146.84;;;14.49;71.88
11888;BME280;6003;42.756;23.130;2023-04-21T07:41:12;156136.25;;;14.44;72.94
11888;BME280;6003;42.756;23.130;2023-04-21T07:43:39;156152.16;;;14.51;73.30
11888;BME280;6003;42.756;23.130;2023-04-21T07:46:06;156120.31;;;14.38;71.62
11888;BME280;6003;42.756;23.130;2023-04-21T07:48:33;156125.63;;;14.40;72.45
11888;BME280;6003;42.756;23.130;2023-04-21T07:51:00;156123.00;;;14.39;71.34
11888;BME280;6003;42.756;23.130;2023-04-21T07:53:28;156104.41;;;14.32;71.73
11888;BME280;6003;42.756;23.130;2023-04-21T07:55:56;156120.31;;;14.38;72.24
11888;BME280;6003;42.756;23.130;2023-04-21T07:58:23;156166.81;;;14.56;72.56
11888;BME280;6003;42.756;23.130;2023-04-21T08:00:50;156113.72;;;14.36;71.75
11888;BME280;6003;42.756;23.130;2023-04-21T08:03:16;156165.47;;;14.56;71.84
11888;BME280;6003;42.756;23.130;2023-04-21T08:05:43;156211.88;;;14.74;72.76
11888;BME280;6003;42.756;23.130;2023-04-21T08:08:10;156290.09;;;15.04;73.03
11888;BME280;6003;42.756;23.130;2023-04-21T08:10:37;156298.06;;;15.07;71.84
11888;BME280;6003;42.756;23.130;2023-04-21T08:13:06;156371.03;;;15.35;70.42
11888;BME280;6003;42.756;23.130;2023-04-21T08:15:33;156392.25;;;15.43;69.28
11888;BME280;6003;42.756;23.130;2023-04-21T08:18:00;156440.00;;;15.62;68.75
11888;BME280;6003;42.756;23.130;2023-04-21T08:20:27;156417.44;;;15.53;70.15
11888;BME280;6003;42.756;23.130;2023-04-21T08:22:54;156409.50;;;15.50;68.86
11888;BME280;6003;42.756;23.130;2023-04-21T08:25:20;156542.25;;;16.01;68.46
11888;BME280;6003;42.756;23.130;2023-04-21T08:27:49;156527.66;;;15.95;66.22
11888;BME280;6003;42.756;23.130;2023-04-21T08:30:17;156518.38;;;15.92;67.19
11888;BME280;6003;42.756;23.130;2023-04-21T08:32:44;156505.09;;;15.87;67.57
11888;BME280;6003;42.756;23.130;2023-04-21T08:35:11;156558.19;;;16.07;69.20
11888;BME280;6003;42.756;23.130;2023-04-21T08:37:38;156584.75;;;16.17;67.30
11888;BME280;6003;42.756;23.130;2023-04-21T08:40:06;156572.78;;;16.13;65.69
11888;BME280;6003;42.756;23.130;2023-04-21T08:42:33;156728.13;;;16.73;65.11
11888;BME280;6003;42.756;23.130;2023-04-21T08:45:03;156814.47;;;17.06;66.77
11888;BME280;6003;42.756;23.130;2023-04-21T08:47:31;156963.28;;;17.63;65.73
11888;BME280;6003;42.756;23.130;2023-04-21T08:49:58;156951.34;;;17.58;64.91
11888;BME280;6003;42.756;23.130;2023-04-21T08:52:25;156858.31;;;17.23;62.90
11888;BME280;6003;42.756;23.130;2023-04-21T08:54:52;156701.53;;;16.62;64.42
11888;BME280;6003;42.756;23.130;2023-04-21T08:57:19;156775.97;;;16.91;64.32
11888;BME280;6003;42.756;23.130;2023-04-21T08:59:46;156757.41;;;16.84;62.47
11888;BME280;6003;42.756;23.130;2023-04-21T09:02:14;156728.13;;;16.73;63.90
11888;BME280;6003;42.756;23.130;2023-04-21T09:04:44;156770.69;;;16.89;63.53
11888;BME280;6003;42.756;23.130;2023-04-21T09:07:12;156713.53;;;16.67;62.23
11888;BME280;6003;42.756;23.130;2023-04-21T09:09:56;156764.03;;;16.86;65.46
11888;BME280;6003;42.756;23.130;2023-04-21T09:12:24;156714.84;;;16.67;62.32
11888;BME280;6003;42.756;23.130;2023-04-21T09:14:52;156760.03;;;16.85;62.37
11888;BME280;6003;42.756;23.130;2023-04-21T09:17:21;156736.09;;;16.76;61.61
11888;BME280;6003;42.756;23.130;2023-04-21T09:19:54;156754.72;;;16.83;61.04
11888;BME280;6003;42.756;23.130;2023-04-21T09:22:25;156795.91;;;16.99;63.49
11888;BME280;6003;42.756;23.130;2023-04-21T09:24:56;156802.56;;;17.01;59.79
11888;BME280;6003;42.756;23.130;2023-04-21T09:27:24;156821.13;;;17.08;61.56
11888;BME280;6003;42.756;23.130;2023-04-21T09:29:51;156895.53;;;17.37;59.37
11888;BME280;6003;42.756;23.130;2023-04-21T09:32:18;156985.88;;;17.72;61.31
11888;BME280;6003;42.756;23.130;2023-04-21T09:34:45;157011.19;;;17.81;58.95
11888;BME280;6003;42.756;23.130;2023-04-21T09:37:14;157059.03;;;18.00;61.35
11888;BME280;6003;42.756;23.130;2023-04-21T09:39:44;157090.91;;;18.12;62.15
11888;BME280;6003;42.756;23.130;2023-04-21T09:42:12;157223.88;;;18.63;63.02
11888;BME280;6003;42.756;23.130;2023-04-21T09:44:38;157297.09;;;18.91;60.62
11888;BME280;6003;42.756;23.130;2023-04-21T09:47:09;157352.94;;;19.13;59.34
11888;BME280;6003;42.756;23.130;2023-04-21T09:50:06;157342.31;;;19.09;57.50
11888;BME280;6003;42.756;23.130;2023-04-21T09:52:35;157315.69;;;18.99;60.35
11888;BME280;6003;42.756;23.130;2023-04-21T09:55:09;157279.81;;;18.85;55.73
11888;BME280;6003;42.756;23.130;2023-04-21T09:57:37;157273.16;;;18.82;55.80
11888;BME280;6003;42.756;23.130;2023-04-21T10:00:06;157142.75;;;18.32;58.70
11888;BME280;6003;42.756;23.130;2023-04-21T10:02:35;156981.91;;;17.70;58.86
11888;BME280;6003;42.756;23.130;2023-04-21T10:05:03;156871.63;;;17.28;59.56
11888;BME280;6003;42.756;23.130;2023-04-21T10:07:30;156853.03;;;17.21;59.43
11888;BME280;6003;42.756;23.130;2023-04-21T10:09:59;156778.66;;;16.92;59.27
11888;BME280;6003;42.756;23.130;2023-04-21T10:12:27;156745.44;;;16.79;61.75
11888;BME280;6003;42.756;23.130;2023-04-21T10:14:54;156744.09;;;16.79;58.62
11888;BME280;6003;42.756;23.130;2023-04-21T10:17:22;156770.69;;;16.89;61.86
11888;BME280;6003;42.756;23.130;2023-04-21T10:19:51;156876.94;;;17.30;64.21
11888;BME280;6003;42.756;23.130;2023-04-21T10:22:29;156862.31;;;17.24;61.06
11888;BME280;6003;42.756;23.130;2023-04-21T10:24:57;156786.63;;;16.95;58.80
11888;BME280;6003;42.756;23.130;2023-04-21T10:27:33;156741.47;;;16.78;59.96
11888;BME280;6003;42.756;23.130;2023-04-21T10:30:00;156725.50;;;16.72;61.94
11888;BME280;6003;42.756;23.130;2023-04-21T10:32:38;156704.22;;;16.63;60.25
11888;BME280;6003;42.756;23.130;2023-04-21T10:35:08;156834.41;;;17.13;63.78
11888;BME280;6003;42.756;23.130;2023-04-21T10:37:35;156903.47;;;17.40;63.04
11888;BME280;6003;42.756;23.130;2023-04-21T10:40:02;156960.63;;;17.62;60.57
11888;BME280;6003;42.756;23.130;2023-04-21T10:42:35;156922.13;;;17.47;59.73
11888;BME280;6003;42.756;23.130;2023-04-21T10:45:08;156954.00;;;17.59;62.15
11888;BME280;6003;42.756;23.130;2023-04-21T10:47:37;157001.84;;;17.78;57.22
11888;BME280;6003;42.756;23.130;2023-04-21T10:50:17;156989.88;;;17.73;56.82
11888;BME280;6003;42.756;23.130;2023-04-21T10:52:50;157017.84;;;17.84;59.52
11888;BME280;6003;42.756;23.130;2023-04-21T10:55:18;157100.25;;;18.16;58.73
11888;BME280;6003;42.756;23.130;2023-04-21T10:57:47;157108.22;;;18.19;60.76
11888;BME280;6003;42.756;23.130;2023-04-21T11:00:17;157073.66;;;18.06;58.34
11888;BME280;6003;42.756;23.130;2023-04-21T11:02:52;157100.25;;;18.16;58.25
11888;BME280;6003;42.756;23.130;2023-04-21T11:05:26;157055.06;;;17.98;59.56
11888;BME280;6003;42.756;23.130;2023-04-21T11:08:01;157108.22;;;18.19;56.99
11888;BME280;6003;42.756;23.130;2023-04-21T11:10:28;157081.63;;;18.09;56.97
11888;BME280;6003;42.756;23.130;2023-04-21T11:12:57;157128.13;;;18.26;61.09
11888;BME280;6003;42.756;23.130;2023-04-21T11:15:24;157161.41;;;18.39;58.62
11888;BME280;6003;42.756;23.130;2023-04-21T11:17:51;157055.06;;;17.98;58.08
11888;BME280;6003;42.756;23.130;2023-04-21T11:20:18;156975.25;;;17.68;58.64
11888;BME280;6003;42.756;23.130;2023-04-21T11:22:45;156876.94;;;17.30;57.45
11888;BME280;6003;42.756;23.130;2023-04-21T11:25:16;156841.06;;;17.16;58.62
11888;BME280;6003;42.756;23.130;2023-04-21T11:27:52;156781.28;;;16.93;56.33
11888;BME280;6003;42.756;23.130;2023-04-21T11:30:21;156842.38;;;17.17;60.52
11888;BME280;6003;42.756;23.130;2023-04-21T11:32:53;156799.88;;;17.00;57.11
11888;BME280;6003;42.756;23.130;2023-04-21T11:35:20;156778.66;;;16.92;57.61
11888;BME280;6003;42.756;23.130;2023-04-21T11:37:49;156760.03;;;16.85;58.63
11888;BME280;6003;42.756;23.130;2023-04-21T11:40:16;156760.03;;;16.85;60.13
11888;BME280;6003;42.756;23.130;2023-04-21T11:42:44;156770.69;;;16.89;60.96
11888;BME280;6003;42.756;23.130;2023-04-21T11:45:15;156728.13;;;16.73;60.51
11888;BME280;6003;42.756;23.130;2023-04-21T11:47:44;156768.00;;;16.88;60.41
11888;BME280;6003;42.756;23.130;2023-04-21T11:50:11;156789.25;;;16.96;63.22
11888;BME280;6003;42.756;23.130;2023-04-21T11:52:38;156802.56;;;17.01;61.11
11888;BME280;6003;42.756;23.130;2023-04-21T11:55:11;156823.81;;;17.09;61.57
11888;BME280;6003;42.756;23.130;2023-04-21T11:57:40;156803.88;;;17.02;60.48
11888;BME280;6003;42.756;23.130;2023-04-21T12:00:09;156745.44;;;16.79;60.53
11888;BME280;6003;42.756;23.130;2023-04-21T12:02:37;156760.03;;;16.85;63.13
11888;BME280;6003;42.756;23.130;2023-04-21T12:05:07;156775.97;;;16.91;62.71
11888;BME280;6003;42.756;23.130;2023-04-21T12:07:34;156775.97;;;16.91;60.87
11888;BME280;6003;42.756;23.130;2023-04-21T12:10:08;156753.38;;;16.82;61.32
11888;BME280;6003;42.756;23.130;2023-04-21T12:12:36;156708.19;;;16.65;59.96
11888;BME280;6003;42.756;23.130;2023-04-21T12:15:05;156717.47;;;16.68;60.26
11888;BME280;6003;42.756;23.130;2023-04-21T12:17:36;156740.09;;;16.77;60.52
11888;BME280;6003;42.756;23.130;2023-04-21T12:20:06;156697.59;;;16.61;61.89
11888;BME280;6003;42.756;23.130;2023-04-21T12:22:34;156667.06;;;16.49;61.20
11888;BME280;6003;42.756;23.130;2023-04-21T12:25:00;156587.38;;;16.18;61.39
11888;BME280;6003;42.756;23.130;2023-04-21T12:27:27;156564.81;;;16.10;64.08
11888;BME280;6003;42.756;23.130;2023-04-21T12:29:54;156542.25;;;16.01;64.45
11888;BME280;6003;42.756;23.130;2023-04-21T12:32:21;156571.47;;;16.12;66.28
11888;BME280;6003;42.756;23.130;2023-04-21T12:34:48;156566.13;;;16.10;65.23
11888;BME280;6003;42.756;23.130;2023-04-21T12:37:17;156554.22;;;16.06;63.10
11888;BME280;6003;42.756;23.130;2023-04-21T12:39:44;156552.84;;;16.05;64.55
11888;BME280;6003;42.756;23.130;2023-04-21T12:42:11;156542.25;;;16.01;63.00
11888;BME280;6003;42.756;23.130;2023-04-21T12:44:38;156566.13;;;16.10;64.52
11888;BME280;6003;42.756;23.130;2023-04-21T12:47:05;156591.38;;;16.20;64.65
11888;BME280;6003;42.756;23.130;2023-04-21T12:49:32;156620.53;;;16.31;66.47
11888;BME280;6003;42.756;23.130;2023-04-21T12:51:59;156575.41;;;16.14;62.51
11888;BME280;6003;42.756;23.130;2023-04-21T12:54:27;156601.97;;;16.24;64.27
11888;BME280;6003;42.756;23.130;2023-04-21T12:56:54;156623.22;;;16.32;62.63
11888;BME280;6003;42.756;23.130;2023-04-21T12:59:22;156641.78;;;16.39;63.27